Time;durP1;ratioP1;P1;durP2;ratioP2;P2;SDS_P1;SDS_P2;PMS_P1;PMS_P2;Temp;Humidity;BMP_temperature;BMP_pressure;BME280_temperature;BME280_humidity;BME280_pressure;Samples;Min_cycle;Max_cycle;Signal;HPM_P1;HPM_P2
2022/12/04 00:00:07;;;;;;;56.72;32.17;;;;;;;;;;5033426;28;20032;-66
2022/12/04 00:02:33;;;;;;;;;;;;;;;;;;5034786;28;20041;-67
2022/12/04 00:04:59;;;;;;;64.15;32.30;;;;;;;;;;5032138;28;19909;-66
2022/12/04 00:07:25;;;;;;;67.95;32.72;;;;;;;;;;5031267;28;20096;-66
2022/12/04 00:09:51;;;;;;;63.60;32.15;;;;;;;;;;5029833;28;20025;-66
2022/12/04 00:12:17;;;;;;;60.45;31.35;;;;;;;;;;5030645;28;20044;-68
2022/12/04 00:14:43;;;;;;;58.53;31.30;;;;;;;;;;5030432;28;20474;-68
2022/12/04 00:17:09;;;;;;;61.47;30.40;;;;;;;;;;5030269;28;20036;-67
2022/12/04 00:19:37;;;;;;;59.88;30.13;;;;;;;;;;5030657;28;20095;-67
2022/12/04 00:22:03;;;;;;;59.67;29.75;;;;;;;;;;5030513;28;20055;-68
2022/12/04 00:24:29;;;;;;;60.45;31.30;;;;;;;;;;5028731;28;20033;-66
2022/12/04 00:26:55;;;;;;;58.45;31.30;;;;;;;;;;5030381;28;20389;-67
2022/12/04 00:29:22;;;;;;;54.78;29.00;;;;;;;;;;5030641;28;20018;-66
2022/12/04 00:31:48;;;;;;;55.35;30.65;;;;;;;;;;5029307;28;20029;-67
2022/12/04 00:34:14;;;;;;;58.13;28.48;;;;;;;;;;5030228;28;20056;-67
2022/12/04 00:36:40;;;;;;;57.00;29.25;;;;;;;;;;5030391;28;20492;-67
2022/12/04 00:39:06;;;;;;;58.17;31.15;;;;;;;;;;5029337;28;20056;-65
2022/12/04 00:41:32;;;;;;;58.10;29.95;;;;;;;;;;5030389;28;20068;-67
2022/12/04 00:43:59;;;;;;;62.10;31.20;;;;;;;;;;5030044;28;20030;-67
2022/12/04 00:46:25;;;;;;;56.97;29.92;;;;;;;;;;5030393;28;20021;-67
2022/12/04 00:48:51;;;;;;;60.42;32.03;;;;;;;;;;5030314;28;20026;-67
2022/12/04 00:51:18;;;;;;;50.03;28.52;;;;;;;;;;5029846;28;20045;-67
2022/12/04 00:53:45;;;;;;;62.40;29.42;;;;;;;;;;5030091;28;20101;-67
2022/12/04 00:56:17;;;;;;;58.60;29.75;;;;;;;;;;5030199;28;20102;-67
2022/12/04 00:58:43;;;;;;;53.95;27.95;;;;;;;;;;5030251;28;20112;-67
2022/12/04 01:01:10;;;;;;;56.55;30.77;;;;;;;;;;5030154;28;20514;-68
2022/12/04 01:03:37;;;;;;;54.55;28.27;;;;;;;;;;5029924;28;20028;-66
2022/12/04 01:06:03;;;;;;;62.08;32.13;;;;;;;;;;5029587;28;20029;-68
2022/12/04 01:08:29;;;;;;;55.63;30.48;;;;;;;;;;5029964;28;20026;-67
2022/12/04 01:10:55;;;;;;;57.88;29.10;;;;;;;;;;5030043;28;20029;-68
2022/12/04 01:13:22;;;;;;;56.83;30.10;;;;;;;;;;5028427;28;20560;-67
2022/12/04 01:15:48;;;;;;;51.72;30.33;;;;;;;;;;5028631;28;20028;-68
2022/12/04 01:18:14;;;;;;;51.95;26.38;;;;;;;;;;5029902;28;20032;-67
2022/12/04 01:20:45;;;;;;;58.22;28.17;;;;;;;;;;5029605;28;20065;-67
2022/12/04 01:23:11;;;;;;;55.15;28.83;;;;;;;;;;5028209;28;20025;-69
2022/12/04 01:25:37;;;;;;;52.22;30.02;;;;;;;;;;5029808;28;20103;-69
2022/12/04 01:28:03;;;;;;;52.50;27.00;;;;;;;;;;5028455;28;20066;-68
2022/12/04 01:30:29;;;;;;;53.88;28.63;;;;;;;;;;5028217;28;20067;-68
2022/12/04 01:32:55;;;;;;;53.25;28.35;;;;;;;;;;5028433;28;20108;-67
2022/12/04 01:35:21;;;;;;;49.10;27.10;;;;;;;;;;5029462;28;20124;-67
2022/12/04 01:37:47;;;;;;;50.60;27.05;;;;;;;;;;5030843;28;20444;-68
2022/12/04 01:40:14;;;;;;;51.42;26.05;;;;;;;;;;5032113;28;20028;-67
2022/12/04 01:42:40;;;;;;;53.95;29.38;;;;;;;;;;5033275;28;20044;-67
2022/12/04 01:45:25;;;;;;;49.95;27.33;;;;;;;;;;5032834;28;20025;-67
2022/12/04 01:47:56;;;;;;;50.30;28.75;;;;;;;;;;5033190;28;20021;-67
2022/12/04 01:50:22;;;;;;;54.55;28.27;;;;;;;;;;5033294;28;20026;-67
2022/12/04 01:52:48;;;;;;;51.38;27.58;;;;;;;;;;5033096;28;20025;-67
2022/12/04 01:55:14;;;;;;;52.92;26.67;;;;;;;;;;5031683;28;20025;-67
2022/12/04 01:57:41;;;;;;;49.30;25.83;;;;;;;;;;5032992;28;20041;-67
2022/12/04 02:00:10;;;;;;;51.38;27.05;;;;;;;;;;5032914;28;20155;-68
2022/12/04 02:02:38;;;;;;;50.72;24.95;;;;;;;;;;5033271;28;20022;-67
2022/12/04 02:05:05;;;;;;;51.92;27.08;;;;;;;;;;5032644;28;20037;-67
2022/12/04 02:07:31;;;;;;;53.25;26.00;;;;;;;;;;5032546;28;20416;-69
2022/12/04 02:10:02;;;;;;;55.15;27.73;;;;;;;;;;5031720;28;20037;-68
2022/12/04 02:12:36;;;;;;;50.88;28.60;;;;;;;;;;5033122;28;20025;-67
2022/12/04 02:15:14;;;;;;;50.35;28.30;;;;;;;;;;5032649;28;20033;-66
2022/12/04 02:17:56;;;;;;;48.10;26.63;;;;;;;;;;5033102;28;20104;-68
2022/12/04 02:20:24;;;;;;;51.85;27.13;;;;;;;;;;5032835;28;20125;-68
2022/12/04 02:23:00;;;;;;;54.90;28.35;;;;;;;;;;5032512;28;20408;-68
2022/12/04 02:25:34;;;;;;;46.85;24.73;;;;;;;;;;5032227;28;20025;-68
2022/12/04 02:28:21;;;;;;;44.83;23.83;;;;;;;;;;5031350;28;20036;-68
2022/12/04 02:30:48;;;;;;;45.45;25.20;;;;;;;;;;5012694;28;20363;-68
2022/12/04 02:33:20;;;;;;;47.53;24.50;;;;;;;;;;5012456;28;20057;-66
2022/12/04 02:35:54;;;;;;;51.03;26.35;;;;;;;;;;5012356;28;20052;-68
2022/12/04 02:38:25;;;;;;;48.80;25.05;;;;;;;;;;5012674;28;20064;-69
2022/12/04 02:41:01;;;;;;;47.60;23.75;;;;;;;;;;5012514;28;20025;-68
2022/12/04 02:43:29;;;;;;;44.22;22.73;;;;;;;;;;5014863;28;20057;-67
2022/12/04 02:46:00;;;;;;;49.25;23.38;;;;;;;;;;5032153;28;20026;-67
2022/12/04 02:48:27;;;;;;;48.88;24.35;;;;;;;;;;5032039;28;20026;-67
2022/12/04 02:50:55;;;;;;;42.08;22.17;;;;;;;;;;5030543;28;20120;-67
2022/12/04 02:53:26;;;;;;;45.17;24.42;;;;;;;;;;5031748;28;20030;-67
2022/12/04 02:55:54;;;;;;;42.95;22.27;;;;;;;;;;5030702;28;20072;-68
2022/12/04 02:58:42;;;;;;;45.95;22.50;;;;;;;;;;5031621;28;20029;-67
2022/12/04 03:01:22;;;;;;;45.25;23.80;;;;;;;;;;5031877;28;20029;-67
2022/12/04 03:03:54;;;;;;;42.95;22.98;;;;;;;;;;5030296;28;20030;-68
2022/12/04 03:06:21;;;;;;;49.35;25.23;;;;;;;;;;5031852;28;20493;-68
2022/12/04 03:08:50;;;;;;;45.35;23.63;;;;;;;;;;5030640;28;20025;-67
2022/12/04 03:11:16;;;;;;;48.47;23.73;;;;;;;;;;5031694;28;20022;-68
2022/12/04 03:14:06;;;;;;;47.30;25.00;;;;;;;;;;5030204;28;20021;-67
2022/12/04 03:16:35;;;;;;;44.95;24.13;;;;;;;;;;5023579;28;20037;-67
2022/12/04 03:19:03;;;;;;;45.13;23.55;;;;;;;;;;5031487;28;20026;-67
2022/12/04 03:21:29;;;;;;;;;;;;;;;;;;5030781;28;20385;-67
2022/12/04 03:23:58;;;;;;;47.45;22.67;;;;;;;;;;5030106;28;19905;-68
2022/12/04 03:26:29;;;;;;;49.10;23.08;;;;;;;;;;5031540;28;20109;-67
2022/12/04 03:29:08;;;;;;;45.25;22.67;;;;;;;;;;5031119;28;20066;-67
2022/12/04 03:31:54;;;;;;;46.45;24.23;;;;;;;;;;5030232;28;20040;-67
2022/12/04 03:34:40;;;;;;;43.17;22.73;;;;;;;;;;5031199;28;20029;-67
2022/12/04 03:37:12;;;;;;;47.42;24.65;;;;;;;;;;5000058;28;20045;-68
2022/12/04 03:39:41;;;;;;;44.05;22.88;;;;;;;;;;5030236;28;20026;-67
2022/12/04 03:42:17;;;;;;;50.08;24.83;;;;;;;;;;5031181;28;20115;-67
2022/12/04 03:44:46;;;;;;;46.05;24.13;;;;;;;;;;5029385;28;20604;-67
2022/12/04 03:47:19;;;;;;;52.00;25.38;;;;;;;;;;5031294;28;20072;-67
2022/12/04 03:49:55;;;;;;;45.70;25.70;;;;;;;;;;5031188;28;20026;-67
2022/12/04 03:52:47;;;;;;;53.05;26.58;;;;;;;;;;5031056;28;20048;-68
2022/12/04 03:55:19;;;;;;;43.60;24.25;;;;;;;;;;5027910;28;20453;-67
2022/12/04 03:57:46;;;;;;;45.65;25.02;;;;;;;;;;5030781;28;20028;-68
2022/12/04 04:00:17;;;;;;;44.08;23.15;;;;;;;;;;5029150;28;20494;-68
2022/12/04 04:02:54;;;;;;;46.58;23.23;;;;;;;;;;5030964;28;20028;-68
2022/12/04 04:05:21;;;;;;;47.05;24.10;;;;;;;;;;5030628;28;20425;-68
2022/12/04 04:07:55;;;;;;;47.83;23.45;;;;;;;;;;5030818;28;20036;-67
2022/12/04 04:10:23;;;;;;;50.50;25.65;;;;;;;;;;5030877;28;20099;-67
2022/12/04 04:24:13;;;;;;;49.20;23.67;;;;;;;;;;5030767;28;20040;-70
2022/12/04 04:26:41;;;;;;;53.25;24.38;;;;;;;;;;5030624;28;20025;-69
2022/12/04 04:29:07;;;;;;;;;;;;;;;;;;5010048;28;20022;-68
2022/12/04 04:31:37;;;;;;;51.20;27.25;;;;;;;;;;5010784;28;19906;-68
2022/12/04 04:34:12;;;;;;;48.95;24.45;;;;;;;;;;5009317;28;20030;-69
2022/12/04 04:36:57;;;;;;;50.78;23.98;;;;;;;;;;5010601;28;20029;-67
2022/12/04 04:39:30;;;;;;;48.08;25.08;;;;;;;;;;5009439;28;20077;-71
2022/12/04 04:42:03;;;;;;;51.63;25.77;;;;;;;;;;5013892;28;20021;-67
2022/12/04 04:44:34;;;;;;;49.83;23.80;;;;;;;;;;5030326;28;20033;-68
2022/12/04 04:47:03;;;;;;;53.97;25.20;;;;;;;;;;5030358;28;20030;-68
2022/12/04 04:49:31;;;;;;;51.05;26.73;;;;;;;;;;5030576;28;20029;-67
2022/12/04 04:51:57;;;;;;;46.03;24.40;;;;;;;;;;5011030;28;20033;-66
2022/12/04 04:54:24;;;;;;;49.67;25.50;;;;;;;;;;5010324;28;20052;-66
2022/12/04 04:56:50;;;;;;;52.80;23.38;;;;;;;;;;5013783;28;20028;-68
2022/12/04 04:59:16;;;;;;;50.20;25.25;;;;;;;;;;5030445;28;20389;-69
2022/12/04 05:01:43;;;;;;;46.72;23.05;;;;;;;;;;5030406;28;20071;-68
2022/12/04 05:04:10;;;;;;;47.17;25.05;;;;;;;;;;5028609;28;20037;-68
2022/12/04 05:06:36;;;;;;;47.58;23.83;;;;;;;;;;5028782;28;20022;-66
2022/12/04 05:09:02;;;;;;;45.20;23.77;;;;;;;;;;5030148;28;20034;-65
2022/12/04 05:11:28;;;;;;;51.88;24.73;;;;;;;;;;5028544;28;20436;-68
2022/12/04 05:13:54;;;;;;;50.15;25.25;;;;;;;;;;5032960;28;20017;-67
2022/12/04 05:16:20;;;;;;;44.28;23.48;;;;;;;;;;5033957;28;20359;-67
2022/12/04 05:21:31;;;;;;;48.65;24.83;;;;;;;;;;5034188;28;20080;-68
2022/12/04 05:23:57;;;;;;;42.80;22.08;;;;;;;;;;5032293;28;20021;-67
2022/12/04 05:26:23;;;;;;;49.00;26.40;;;;;;;;;;5033563;28;20098;-68
2022/12/04 05:28:49;;;;;;;43.30;22.02;;;;;;;;;;5033622;28;20063;-67
2022/12/04 05:31:16;;;;;;;48.05;24.17;;;;;;;;;;5032367;28;20111;-67
2022/12/04 05:33:42;;;;;;;43.58;24.55;;;;;;;;;;5032206;28;20018;-68
2022/12/04 05:36:08;;;;;;;45.72;23.00;;;;;;;;;;5042590;22;20050;-64
2022/12/04 05:38:35;;;;;;;48.72;21.20;;;;;;;;;;5014248;28;20088;-65
2022/12/04 05:41:01;;;;;;;44.83;21.30;;;;;;;;;;5015355;28;20026;-65
2022/12/04 05:43:28;;;;;;;42.97;22.15;;;;;;;;;;5014198;28;20083;-64
2022/12/04 05:45:54;;;;;;;43.25;24.40;;;;;;;;;;5020382;28;20038;-65
2022/12/04 05:48:20;;;;;;;42.85;23.33;;;;;;;;;;5033775;28;20025;-64
2022/12/04 05:50:46;;;;;;;42.08;21.17;;;;;;;;;;5033960;28;20425;-64
2022/12/04 05:53:12;;;;;;;40.28;20.13;;;;;;;;;;5035186;28;20025;-64
2022/12/04 05:55:38;;;;;;;44.75;22.15;;;;;;;;;;5034414;28;20033;-64
2022/12/04 05:58:04;;;;;;;49.13;22.98;;;;;;;;;;5034530;28;20474;-65
2022/12/04 06:00:30;;;;;;;44.60;21.98;;;;;;;;;;5035379;28;20034;-64
2022/12/04 06:02:56;;;;;;;46.22;22.65;;;;;;;;;;5034944;28;20030;-64
2022/12/04 06:05:22;;;;;;;44.55;20.88;;;;;;;;;;5033616;28;20034;-64
2022/12/04 06:07:48;;;;;;;44.22;20.00;;;;;;;;;;5033484;28;20027;-64
2022/12/04 06:10:14;;;;;;;39.45;21.23;;;;;;;;;;5034546;28;20025;-64
2022/12/04 06:12:40;;;;;;;38.80;20.95;;;;;;;;;;5029719;28;20477;-64
2022/12/04 06:15:07;;;;;;;40.20;21.13;;;;;;;;;;5034159;28;20105;-64
2022/12/04 06:17:32;;;;;;;40.42;20.10;;;;;;;;;;5034351;28;20026;-64
2022/12/04 06:19:59;;;;;;;40.42;20.85;;;;;;;;;;5025855;28;20026;-64
2022/12/04 06:22:24;;;;;;;39.25;20.13;;;;;;;;;;5013247;28;20104;-64
2022/12/04 06:24:50;;;;;;;39.03;20.15;;;;;;;;;;5013717;28;20467;-64
2022/12/04 06:27:16;;;;;;;35.40;19.08;;;;;;;;;;5013428;28;20129;-64
2022/12/04 06:29:42;;;;;;;35.60;20.08;;;;;;;;;;5033009;28;20025;-64
2022/12/04 06:32:08;;;;;;;39.15;19.33;;;;;;;;;;5025440;28;20482;-64
2022/12/04 06:34:35;;;;;;;41.90;20.40;;;;;;;;;;5012794;28;20120;-64
2022/12/04 06:37:01;;;;;;;38.65;18.02;;;;;;;;;;5013849;28;20092;-66
2022/12/04 06:39:27;;;;;;;38.40;19.38;;;;;;;;;;5014037;28;20022;-63
2022/12/04 06:41:53;;;;;;;39.42;20.52;;;;;;;;;;5013795;28;20034;-64
2022/12/04 06:44:20;;;;;;;42.20;20.80;;;;;;;;;;5012399;28;20030;-64
2022/12/04 06:46:46;;;;;;;38.50;18.27;;;;;;;;;;5032491;28;20382;-65
2022/12/04 06:49:12;;;;;;;35.80;19.50;;;;;;;;;;5033647;28;20032;-64
2022/12/04 06:51:39;;;;;;;33.03;17.05;;;;;;;;;;5031896;28;20045;-64
2022/12/04 06:54:05;;;;;;;37.85;18.20;;;;;;;;;;5033469;28;20028;-64
2022/12/04 06:56:32;;;;;;;36.85;17.52;;;;;;;;;;5032527;28;20104;-66
2022/12/04 06:58:59;;;;;;;40.70;19.48;;;;;;;;;;5033133;28;20049;-65
2022/12/04 07:01:27;;;;;;;35.67;17.13;;;;;;;;;;5012787;28;20025;-62
2022/12/04 07:03:53;;;;;;;34.50;17.77;;;;;;;;;;5013346;28;20044;-64
2022/12/04 07:06:22;;;;;;;36.35;18.75;;;;;;;;;;5011969;28;20040;-64
2022/12/04 07:08:50;;;;;;;35.00;17.30;;;;;;;;;;5013152;28;20470;-64
2022/12/04 07:11:16;;;;;;;39.75;19.23;;;;;;;;;;5015766;28;20080;-64
2022/12/04 07:13:42;;;;;;;33.67;16.63;;;;;;;;;;5027615;28;20025;-64
2022/12/04 07:16:10;;;;;;;35.15;16.60;;;;;;;;;;5013327;28;20096;-64
2022/12/04 07:18:36;;;;;;;33.53;16.75;;;;;;;;;;5013256;28;20026;-65
2022/12/04 07:21:06;;;;;;;37.47;17.88;;;;;;;;;;5013096;28;20447;-65
2022/12/04 07:23:32;;;;;;;31.48;16.13;;;;;;;;;;5011710;28;20029;-65
2022/12/04 07:25:59;;;;;;;34.28;16.25;;;;;;;;;;5011780;28;20025;-66
2022/12/04 07:28:25;;;;;;;33.17;17.10;;;;;;;;;;5025879;28;20021;-64
2022/12/04 07:30:51;;;;;;;31.00;17.02;;;;;;;;;;5032513;28;20473;-65
2022/12/04 07:33:17;;;;;;;36.97;17.10;;;;;;;;;;5032473;28;20064;-65
2022/12/04 07:35:43;;;;;;;34.42;18.30;;;;;;;;;;5031421;28;20753;-64
2022/12/04 07:38:09;;;;;;;33.13;16.88;;;;;;;;;;5032677;28;20033;-64
2022/12/04 07:40:36;;;;;;;29.58;14.98;;;;;;;;;;5032675;28;20409;-64
2022/12/04 07:43:02;;;;;;;29.03;16.50;;;;;;;;;;5029700;28;20037;-64
2022/12/04 07:45:28;;;;;;;35.33;16.60;;;;;;;;;;5027733;28;20022;-64
2022/12/04 07:47:54;;;;;;;33.13;16.70;;;;;;;;;;5012890;28;20076;-64
2022/12/04 07:50:20;;;;;;;33.28;17.10;;;;;;;;;;5012790;28;20414;-64
2022/12/04 07:52:46;;;;;;;32.83;16.38;;;;;;;;;;5011630;28;20355;-64
2022/12/04 07:55:12;;;;;;;32.42;16.75;;;;;;;;;;5015728;28;20052;-64
2022/12/04 07:57:38;;;;;;;33.97;17.42;;;;;;;;;;5032542;28;20076;-64
2022/12/04 08:00:05;;;;;;;32.10;15.75;;;;;;;;;;5032298;28;20031;-65
2022/12/04 08:02:31;;;;;;;31.92;15.70;;;;;;;;;;5032116;28;20029;-64
2022/12/04 08:04:56;;;;;;;30.73;15.93;;;;;;;;;;5032344;28;20022;-63
2022/12/04 08:07:22;;;;;;;30.52;16.83;;;;;;;;;;5031428;28;20095;-65
2022/12/04 08:09:48;;;;;;;31.40;15.80;;;;;;;;;;5031611;28;20363;-64
2022/12/04 08:12:14;;;;;;;29.50;15.80;;;;;;;;;;5032729;28;20018;-65
2022/12/04 08:14:40;;;;;;;33.08;16.08;;;;;;;;;;5032880;28;20028;-63
2022/12/04 08:17:06;;;;;;;27.60;15.18;;;;;;;;;;5033008;28;20052;-66
2022/12/04 08:19:32;;;;;;;28.13;14.30;;;;;;;;;;5035319;28;20026;-67
2022/12/04 08:21:58;;;;;;;30.95;13.80;;;;;;;;;;5033748;28;20116;-67
2022/12/04 08:24:24;;;;;;;29.35;15.02;;;;;;;;;;5035529;28;20029;-66
2022/12/04 08:26:50;;;;;;;32.30;15.68;;;;;;;;;;5034208;28;20021;-65
2022/12/04 08:29:16;;;;;;;27.73;13.85;;;;;;;;;;5032126;28;20083;-66
2022/12/04 08:31:42;;;;;;;29.85;14.95;;;;;;;;;;5032729;28;20037;-66
2022/12/04 08:34:08;;;;;;;31.42;15.60;;;;;;;;;;5032658;28;20018;-65
2022/12/04 08:36:34;;;;;;;31.23;16.02;;;;;;;;;;5032182;28;20030;-65
2022/12/04 08:39:00;;;;;;;29.45;15.00;;;;;;;;;;5032879;28;20470;-66
2022/12/04 08:41:27;;;;;;;29.48;14.82;;;;;;;;;;5031456;28;20033;-64
2022/12/04 08:43:54;;;;;;;29.38;14.45;;;;;;;;;;5032175;28;20084;-65
2022/12/04 08:46:20;;;;;;;29.85;15.95;;;;;;;;;;5032159;28;20029;-65
2022/12/04 08:48:46;;;;;;;27.30;14.50;;;;;;;;;;5039043;28;20510;-64
2022/12/04 08:51:14;;;;;;;30.85;14.60;;;;;;;;;;5032330;28;20022;-64
2022/12/04 08:53:40;;;;;;;33.88;15.27;;;;;;;;;;5017919;28;20025;-64
2022/12/04 08:56:06;;;;;;;28.67;14.55;;;;;;;;;;5018664;28;20022;-65
2022/12/04 08:58:32;;;;;;;29.58;14.52;;;;;;;;;;5026247;28;20111;-64
2022/12/04 09:01:09;;;;;;;30.83;15.40;;;;;;;;;;5038665;28;20436;-66
2022/12/04 09:03:35;;;;;;;28.73;14.75;;;;;;;;;;5038369;28;20028;-64
2022/12/04 09:06:02;;;;;;;28.08;13.50;;;;;;;;;;5038391;28;20441;-64
2022/12/04 09:08:28;;;;;;;26.35;13.63;;;;;;;;;;5038138;28;20021;-64
2022/12/04 09:10:54;;;;;;;28.90;16.52;;;;;;;;;;5037093;28;20018;-64
2022/12/04 09:13:20;;;;;;;30.13;15.52;;;;;;;;;;5038046;28;20021;-63
2022/12/04 09:15:46;;;;;;;33.03;16.33;;;;;;;;;;5037788;28;20036;-64
2022/12/04 09:18:12;;;;;;;28.83;14.25;;;;;;;;;;5036193;28;20063;-65
2022/12/04 09:20:38;;;;;;;29.73;14.18;;;;;;;;;;5017035;28;20145;-66
2022/12/04 09:23:05;;;;;;;26.45;15.10;;;;;;;;;;5018249;28;20030;-65
2022/12/04 09:25:31;;;;;;;29.85;14.88;;;;;;;;;;5018392;28;20025;-65
2022/12/04 09:27:59;;;;;;;27.75;15.10;;;;;;;;;;5016962;28;20032;-62
2022/12/04 09:30:25;;;;;;;30.60;14.82;;;;;;;;;;5019230;28;20398;-64
2022/12/04 09:32:51;;;;;;;26.65;13.90;;;;;;;;;;5017957;28;20025;-65
2022/12/04 09:35:17;;;;;;;27.20;13.90;;;;;;;;;;5016958;28;20127;-65
2022/12/04 09:37:44;;;;;;;29.10;15.43;;;;;;;;;;5018687;28;20118;-66
2022/12/04 09:40:27;;;;;;;30.52;14.63;;;;;;;;;;5017822;28;20038;-65
2022/12/04 09:43:07;;;;;;;27.00;14.45;;;;;;;;;;5018729;28;20026;-65
2022/12/04 09:45:39;;;;;;;28.88;14.88;;;;;;;;;;5018605;28;20034;-65
2022/12/04 09:48:08;;;;;;;28.02;14.63;;;;;;;;;;5018820;28;20022;-66
2022/12/04 09:50:38;;;;;;;25.83;13.48;;;;;;;;;;5019231;28;20018;-66
2022/12/04 09:53:15;;;;;;;28.77;15.88;;;;;;;;;;5017695;28;20056;-65
2022/12/04 09:55:45;;;;;;;27.90;15.18;;;;;;;;;;5017815;28;20037;-60
2022/12/04 09:58:15;;;;;;;27.00;13.43;;;;;;;;;;5017331;28;20030;-66
2022/12/04 10:00:42;;;;;;;30.33;16.80;;;;;;;;;;5016195;28;20474;-65
2022/12/04 10:03:15;;;;;;;27.33;12.70;;;;;;;;;;5014806;28;20040;-65
2022/12/04 10:05:51;;;;;;;28.40;13.63;;;;;;;;;;5016143;28;20030;-67
2022/12/04 10:08:23;;;;;;;27.55;14.13;;;;;;;;;;5016590;28;20033;-65
2022/12/04 10:11:10;;;;;;;27.10;13.95;;;;;;;;;;5015539;28;20437;-65
2022/12/04 10:13:36;;;;;;;29.10;15.68;;;;;;;;;;5030436;28;20044;-67
2022/12/04 10:16:01;;;;;;;29.55;14.38;;;;;;;;;;5035485;28;20116;-66
2022/12/04 10:19:00;;;;;;;27.05;13.68;;;;;;;;;;5035212;28;20034;-65
2022/12/04 10:21:44;;;;;;;27.92;13.55;;;;;;;;;;5002769;28;20034;-63
2022/12/04 10:24:23;;;;;;;26.83;13.63;;;;;;;;;;5035181;28;20502;-65
2022/12/04 10:26:50;;;;;;;30.27;17.75;;;;;;;;;;5036189;28;20021;-66
2022/12/04 10:29:19;;;;;;;26.38;14.40;;;;;;;;;;5035009;28;20057;-66
2022/12/04 10:31:45;;;;;;;30.40;15.55;;;;;;;;;;5036259;28;20089;-65
2022/12/04 10:34:24;;;;;;;25.75;13.93;;;;;;;;;;5036455;28;20017;-67
2022/12/04 10:36:51;;;;;;;28.65;15.27;;;;;;;;;;5036399;28;20501;-66
2022/12/04 10:39:33;;;;;;;26.80;14.55;;;;;;;;;;5035038;28;20078;-65
2022/12/04 10:41:59;;;;;;;27.67;14.93;;;;;;;;;;5035863;28;20025;-65
2022/12/04 10:44:25;;;;;;;26.98;15.50;;;;;;;;;;5035176;28;20064;-65
2022/12/04 10:46:55;;;;;;;29.73;13.75;;;;;;;;;;5035453;28;20040;-65
2022/12/04 10:49:23;;;;;;;28.15;15.38;;;;;;;;;;5025797;28;20030;-66
2022/12/04 10:51:49;;;;;;;29.08;15.82;;;;;;;;;;5013752;28;20029;-65
2022/12/04 10:54:21;;;;;;;27.75;14.77;;;;;;;;;;5013965;28;20022;-65
2022/12/04 10:56:52;;;;;;;28.38;14.05;;;;;;;;;;5012905;28;20026;-65
2022/12/04 10:59:18;;;;;;;28.30;13.90;;;;;;;;;;5012847;28;20022;-66
2022/12/04 11:01:44;;;;;;;29.55;14.13;;;;;;;;;;5013418;28;20124;-66
2022/12/04 11:04:36;;;;;;;31.67;16.75;;;;;;;;;;5012677;28;20426;-65
2022/12/04 11:07:04;;;;;;;29.20;16.38;;;;;;;;;;5010162;28;20038;-65
2022/12/04 11:09:31;;;;;;;29.33;15.07;;;;;;;;;;5013653;28;20105;-65
2022/12/04 11:12:17;;;;;;;26.55;14.80;;;;;;;;;;5014399;28;20037;-65
2022/12/04 11:14:43;;;;;;;31.52;17.15;;;;;;;;;;5033465;28;20032;-65
2022/12/04 11:17:15;;;;;;;30.73;15.02;;;;;;;;;;5032983;28;20029;-66
2022/12/04 11:19:41;;;;;;;27.73;14.55;;;;;;;;;;5032975;28;20057;-66
2022/12/04 11:22:14;;;;;;;30.15;16.02;;;;;;;;;;5034405;28;20056;-65
2022/12/04 11:24:41;;;;;;;28.15;15.77;;;;;;;;;;5036439;28;20155;-65
2022/12/04 11:27:15;;;;;;;28.92;15.18;;;;;;;;;;5036090;28;20017;-65
2022/12/04 11:29:42;;;;;;;29.10;15.13;;;;;;;;;;5032139;28;20072;-64
2022/12/04 11:32:25;;;;;;;32.40;15.50;;;;;;;;;;5027420;28;20393;-65
2022/12/04 11:34:53;;;;;;;31.40;16.23;;;;;;;;;;5013919;28;20030;-64
2022/12/04 11:37:27;;;;;;;31.50;15.95;;;;;;;;;;5022237;23;20045;-67
2022/12/04 11:39:53;;;;;;;29.67;15.32;;;;;;;;;;5002092;28;20116;-68
2022/12/04 11:42:23;;;;;;;29.73;16.27;;;;;;;;;;5006147;28;20438;-69
2022/12/04 11:44:51;;;;;;;31.70;15.95;;;;;;;;;;4989789;28;20081;-67
2022/12/04 11:47:19;;;;;;;31.02;16.83;;;;;;;;;;4980047;28;20023;-68
2022/12/04 11:49:56;;;;;;;34.22;17.02;;;;;;;;;;4970790;28;20034;-68
2022/12/04 11:52:25;;;;;;;31.70;15.98;;;;;;;;;;4972016;28;20027;-67
2022/12/04 11:55:01;;;;;;;30.67;16.15;;;;;;;;;;4970290;28;20030;-68
2022/12/04 11:57:31;;;;;;;29.92;16.27;;;;;;;;;;4971779;28;20101;-68
2022/12/04 12:00:08;;;;;;;29.88;17.15;;;;;;;;;;4972136;28;20047;-68
2022/12/04 12:02:34;;;;;;;32.85;17.88;;;;;;;;;;4971947;28;20037;-67
2022/12/04 12:05:15;;;;;;;30.38;16.48;;;;;;;;;;4971544;28;20479;-67
2022/12/04 12:08:01;;;;;;;32.85;17.30;;;;;;;;;;4971937;28;20022;-66
2022/12/04 12:10:37;;;;;;;33.75;18.23;;;;;;;;;;4964735;28;20037;-69
2022/12/04 12:13:13;;;;;;;33.50;17.98;;;;;;;;;;4981789;28;20430;-68
2022/12/04 12:15:51;;;;;;;33.08;16.92;;;;;;;;;;4991214;28;20390;-67
2022/12/04 12:18:36;;;;;;;33.42;17.52;;;;;;;;;;4990966;28;20027;-67
2022/12/04 12:21:02;;;;;;;32.38;18.30;;;;;;;;;;4638846;28;10000685;-71
2022/12/04 12:23:31;;;;;;;34.50;18.67;;;;;;;;;;4966490;28;20026;-67
2022/12/04 12:26:03;;;;;;;32.83;17.67;;;;;;;;;;4988410;28;20030;-67
2022/12/04 12:28:42;;;;;;;35.83;20.48;;;;;;;;;;4988215;28;20105;-67
2022/12/04 12:31:27;;;;;;;35.70;18.85;;;;;;;;;;4987273;28;20080;-67
2022/12/04 12:34:15;;;;;;;38.00;19.17;;;;;;;;;;4985410;28;20438;-67
2022/12/04 12:36:47;;;;;;;32.60;17.05;;;;;;;;;;4976593;28;20366;-66
2022/12/04 12:39:18;;;;;;;33.70;17.70;;;;;;;;;;4988588;28;20119;-68
2022/12/04 12:41:50;;;;;;;31.27;16.60;;;;;;;;;;4988261;28;20674;-67
2022/12/04 12:44:25;;;;;;;31.92;17.08;;;;;;;;;;4987782;28;20038;-67
2022/12/04 12:46:57;;;;;;;32.08;18.92;;;;;;;;;;4987885;28;20109;-68
2022/12/04 12:49:33;;;;;;;32.13;18.23;;;;;;;;;;4987917;28;20030;-68
2022/12/04 12:51:59;;;;;;;34.08;18.05;;;;;;;;;;4988130;28;20049;-67
2022/12/04 12:54:44;;;;;;;35.00;18.60;;;;;;;;;;4970254;28;20501;-68
2022/12/04 12:57:19;;;;;;;32.97;18.25;;;;;;;;;;4987830;28;20034;-67
2022/12/04 12:59:50;;;;;;;30.95;17.75;;;;;;;;;;4986442;28;20034;-68
2022/12/04 13:02:23;;;;;;;31.02;16.58;;;;;;;;;;4987508;28;20025;-67
2022/12/04 13:04:50;;;;;;;34.45;18.05;;;;;;;;;;4987876;28;20018;-68
2022/12/04 13:07:16;;;;;;;32.05;16.52;;;;;;;;;;4987966;28;20383;-67
2022/12/04 13:09:47;;;;;;;32.53;19.15;;;;;;;;;;4987499;28;20181;-67
2022/12/04 13:12:15;;;;;;;31.48;17.65;;;;;;;;;;4987959;28;20067;-68
2022/12/04 13:14:41;;;;;;;35.25;19.00;;;;;;;;;;4989003;28;20418;-67
2022/12/04 13:17:10;;;;;;;37.97;20.85;;;;;;;;;;4971865;28;20045;-67
2022/12/04 13:19:48;;;;;;;38.50;20.75;;;;;;;;;;4990225;28;20073;-69
2022/12/04 13:22:34;;;;;;;38.22;22.10;;;;;;;;;;4990100;28;20022;-67
2022/12/04 13:25:13;;;;;;;38.33;20.58;;;;;;;;;;4627874;28;10000120;-69
2022/12/04 13:27:57;;;;;;;42.00;22.30;;;;;;;;;;4987574;28;20109;-68
2022/12/04 13:30:29;;;;;;;47.08;24.50;;;;;;;;;;4986187;28;20032;-67
2022/12/04 13:33:01;;;;;;;40.58;22.60;;;;;;;;;;4987890;28;20037;-68
2022/12/04 13:35:33;;;;;;;43.55;24.00;;;;;;;;;;4991504;28;20030;-68
2022/12/04 13:38:12;;;;;;;41.47;21.48;;;;;;;;;;4989796;28;20057;-68
2022/12/04 13:40:38;;;;;;;;;;;;;;;;;;4991497;28;20144;-65
2022/12/04 13:43:23;;;;;;;42.45;22.00;;;;;;;;;;4989426;28;19910;-67
2022/12/04 13:45:50;;;;;;;43.40;23.58;;;;;;;;;;4990563;28;20046;-68
2022/12/04 13:48:26;;;;;;;41.17;23.05;;;;;;;;;;4989233;28;20022;-67
2022/12/04 13:51:00;;;;;;;44.55;23.30;;;;;;;;;;4992462;28;20391;-67
2022/12/04 13:53:34;;;;;;;46.85;24.38;;;;;;;;;;5006803;28;20053;-67
2022/12/04 13:56:00;;;;;;;46.30;24.23;;;;;;;;;;4988969;28;20136;-69
2022/12/04 13:58:29;;;;;;;43.45;23.25;;;;;;;;;;4972635;28;20057;-68
2022/12/04 14:01:11;;;;;;;50.25;24.77;;;;;;;;;;4632038;28;10000191;-67
2022/12/04 14:03:48;;;;;;;46.05;22.67;;;;;;;;;;4973007;28;20375;-67
2022/12/04 14:06:25;;;;;;;47.97;24.92;;;;;;;;;;4990472;28;20434;-67
2022/12/04 14:08:59;;;;;;;43.95;24.05;;;;;;;;;;4990590;28;20073;-66
2022/12/04 14:11:26;;;;;;;48.58;24.20;;;;;;;;;;4990739;28;20034;-68
2022/12/04 14:13:54;;;;;;;44.08;23.42;;;;;;;;;;4989964;28;20026;-67
2022/12/04 14:16:21;;;;;;;42.50;23.10;;;;;;;;;;4972604;28;20572;-66
2022/12/04 14:18:48;;;;;;;45.30;22.90;;;;;;;;;;4990359;28;20034;-67
2022/12/04 14:21:14;;;;;;;45.70;24.08;;;;;;;;;;4989979;28;20137;-66
2022/12/04 14:23:41;;;;;;;40.03;21.30;;;;;;;;;;4970620;28;20082;-68
2022/12/04 14:26:19;;;;;;;39.67;21.17;;;;;;;;;;4970977;28;20037;-67
2022/12/04 14:28:45;;;;;;;41.42;24.00;;;;;;;;;;4985126;28;20029;-67
2022/12/04 14:31:33;;;;;;;49.15;24.30;;;;;;;;;;4990124;28;20395;-67
2022/12/04 14:34:02;;;;;;;47.10;25.17;;;;;;;;;;4990013;28;20030;-68
2022/12/04 14:36:30;;;;;;;46.42;23.17;;;;;;;;;;4972563;28;20038;-67
2022/12/04 14:39:15;;;;;;;43.85;24.23;;;;;;;;;;4972816;28;20383;-67
2022/12/04 14:41:41;;;;;;;43.83;22.75;;;;;;;;;;4989655;28;20121;-67
2022/12/04 14:44:17;;;;;;;47.40;23.30;;;;;;;;;;4989022;28;20092;-66
2022/12/04 14:46:47;;;;;;;44.67;23.00;;;;;;;;;;4989756;28;20042;-67